sensor_id;sensor_type;location;lat;lon;timestamp;temperature;humidity
18805;DHT22;9530;48.930;9.526;2022-10-15T00:00:20;14.40;99.90
18805;DHT22;9530;48.930;9.526;2022-10-15T00:02:47;14.30;99.90
18805;DHT22;9530;48.930;9.526;2022-10-15T00:05:16;14.40;99.90
18805;DHT22;9530;48.930;9.526;2022-10-15T00:07:43;14.40;99.90
18805;DHT22;9530;48.930;9.526;2022-10-15T00:10:09;14.40;99.90
18805;DHT22;9530;48.930;9.526;2022-10-15T00:12:36;14.40;99.90
18805;DHT22;9530;48.930;9.526;2022-10-15T00:15:04;14.40;99.90
18805;DHT22;9530;48.930;9.526;2022-10-15T00:17:31;14.50;99.90
18805;DHT22;9530;48.930;9.526;2022-10-15T00:19:58;14.40;99.90
18805;DHT22;9530;48.930;9.526;2022-10-15T00:22:26;14.40;99.90
18805;DHT22;9530;48.930;9.526;2022-10-15T00:24:52;14.40;99.90
18805;DHT22;9530;48.930;9.526;2022-10-15T00:27:19;14.40;99.90
18805;DHT22;9530;48.930;9.526;2022-10-15T00:29:46;14.50;99.90
18805;DHT22;9530;48.930;9.526;2022-10-15T00:32:13;14.50;99.90
18805;DHT22;9530;48.930;9.526;2022-10-15T00:34:39;14.50;99.90
18805;DHT22;9530;48.930;9.526;2022-10-15T00:37:07;14.50;99.90
18805;DHT22;9530;48.930;9.526;2022-10-15T00:39:35;14.50;99.90
18805;DHT22;9530;48.930;9.526;2022-10-15T00:42:02;14.50;99.90
18805;DHT22;9530;48.930;9.526;2022-10-15T00:44:50;14.50;99.90
18805;DHT22;9530;48.930;9.526;2022-10-15T00:47:19;14.50;99.90
18805;DHT22;9530;48.930;9.526;2022-10-15T00:49:56;14.50;99.90
18805;DHT22;9530;48.930;9.526;2022-10-15T00:52:26;14.50;99.90
18805;DHT22;9530;48.930;9.526;2022-10-15T00:55:04;14.50;99.90
18805;DHT22;9530;48.930;9.526;2022-10-15T00:57:32;14.50;99.90
18805;DHT22;9530;48.930;9.526;2022-10-15T01:00:05;14.60;99.90
18805;DHT22;9530;48.930;9.526;2022-10-15T01:02:32;14.60;99.90
18805;DHT22;9530;48.930;9.526;2022-10-15T01:04:59;14.50;99.90
18805;DHT22;9530;48.930;9.526;2022-10-15T01:07:26;14.60;99.90
18805;DHT22;9530;48.930;9.526;2022-10-15T01:09:53;14.60;99.90
18805;DHT22;9530;48.930;9.526;2022-10-15T01:12:28;14.60;99.90
18805;DHT22;9530;48.930;9.526;2022-10-15T01:15:02;14.60;99.90
18805;DHT22;9530;48.930;9.526;2022-10-15T01:17:36;14.60;99.90
18805;DHT22;9530;48.930;9.526;2022-10-15T01:29:51;14.60;99.90
18805;DHT22;9530;48.930;9.526;2022-10-15T01:32:25;14.60;99.90
18805;DHT22;9530;48.930;9.526;2022-10-15T01:34:58;14.60;99.90
18805;DHT22;9530;48.930;9.526;2022-10-15T01:37:31;14.70;99.90
18805;DHT22;9530;48.930;9.526;2022-10-15T01:40:05;14.70;99.90
18805;DHT22;9530;48.930;9.526;2022-10-15T01:42:42;14.70;99.90
18805;DHT22;9530;48.930;9.526;2022-10-15T01:45:15;14.70;99.90
18805;DHT22;9530;48.930;9.526;2022-10-15T01:47:48;14.70;99.90
18805;DHT22;9530;48.930;9.526;2022-10-15T01:50:16;14.70;99.90
18805;DHT22;9530;48.930;9.526;2022-10-15T01:52:44;14.70;99.90
18805;DHT22;9530;48.930;9.526;2022-10-15T01:55:13;14.70;99.90
18805;DHT22;9530;48.930;9.526;2022-10-15T01:57:42;14.70;99.90
18805;DHT22;9530;48.930;9.526;2022-10-15T02:00:10;14.80;99.90
18805;DHT22;9530;48.930;9.526;2022-10-15T02:02:37;14.80;99.90
18805;DHT22;9530;48.930;9.526;2022-10-15T02:05:09;14.70;99.90
18805;DHT22;9530;48.930;9.526;2022-10-15T02:07:46;14.80;99.90
18805;DHT22;9530;48.930;9.526;2022-10-15T02:10:19;14.80;99.90
18805;DHT22;9530;48.930;9.526;2022-10-15T02:12:55;14.90;99.90
18805;DHT22;9530;48.930;9.526;2022-10-15T02:15:30;14.90;99.90
18805;DHT22;9530;48.930;9.526;2022-10-15T02:18:01;14.90;99.90
18805;DHT22;9530;48.930;9.526;2022-10-15T02:20:38;14.90;99.90
18805;DHT22;9530;48.930;9.526;2022-10-15T02:23:10;15.00;99.90
18805;DHT22;9530;48.930;9.526;2022-10-15T02:25:39;15.00;99.90
18805;DHT22;9530;48.930;9.526;2022-10-15T02:28:08;15.00;99.90
18805;DHT22;9530;48.930;9.526;2022-10-15T02:30:37;15.00;99.90
18805;DHT22;9530;48.930;9.526;2022-10-15T02:33:04;15.10;99.90
18805;DHT22;9530;48.930;9.526;2022-10-15T02:35:33;15.10;99.90
18805;DHT22;9530;48.930;9.526;2022-10-15T02:38:04;15.10;99.90
18805;DHT22;9530;48.930;9.526;2022-10-15T02:40:33;15.10;99.90
18805;DHT22;9530;48.930;9.526;2022-10-15T02:43:03;15.00;99.90
18805;DHT22;9530;48.930;9.526;2022-10-15T02:45:29;15.00;99.90
18805;DHT22;9530;48.930;9.526;2022-10-15T02:47:56;15.10;99.90
18805;DHT22;9530;48.930;9.526;2022-10-15T02:50:23;15.00;99.90
18805;DHT22;9530;48.930;9.526;2022-10-15T02:52:51;15.10;99.90
18805;DHT22;9530;48.930;9.526;2022-10-15T02:55:18;15.00;99.90
18805;DHT22;9530;48.930;9.526;2022-10-15T02:57:44;15.10;99.90
18805;DHT22;9530;48.930;9.526;2022-10-15T03:00:12;15.10;99.90
18805;DHT22;9530;48.930;9.526;2022-10-15T03:02:39;15.10;99.90
18805;DHT22;9530;48.930;9.526;2022-10-15T03:05:06;15.10;99.90
18805;DHT22;9530;48.930;9.526;2022-10-15T03:07:33;15.10;99.90
18805;DHT22;9530;48.930;9.526;2022-10-15T03:10:01;15.10;99.90
18805;DHT22;9530;48.930;9.526;2022-10-15T03:12:28;15.10;99.90
18805;DHT22;9530;48.930;9.526;2022-10-15T03:14:54;15.10;99.90
18805;DHT22;9530;48.930;9.526;2022-10-15T03:17:21;15.10;99.90
18805;DHT22;9530;48.930;9.526;2022-10-15T03:19:48;15.10;99.90
18805;DHT22;9530;48.930;9.526;2022-10-15T03:22:15;15.10;99.90
18805;DHT22;9530;48.930;9.526;2022-10-15T03:24:41;15.10;99.90
18805;DHT22;9530;48.930;9.526;2022-10-15T03:27:09;15.10;99.90
18805;DHT22;9530;48.930;9.526;2022-10-15T03:29:36;15.10;99.90
18805;DHT22;9530;48.930;9.526;2022-10-15T03:32:03;15.10;99.90
18805;DHT22;9530;48.930;9.526;2022-10-15T03:34:30;15.10;99.90
18805;DHT22;9530;48.930;9.526;2022-10-15T03:36:56;15.20;99.90
18805;DHT22;9530;48.930;9.526;2022-10-15T03:39:23;15.10;99.90
18805;DHT22;9530;48.930;9.526;2022-10-15T03:41:51;15.20;99.90
18805;DHT22;9530;48.930;9.526;2022-10-15T03:44:19;15.20;99.90
18805;DHT22;9530;48.930;9.526;2022-10-15T03:46:46;15.20;99.90
18805;DHT22;9530;48.930;9.526;2022-10-15T03:49:13;15.10;99.90
18805;DHT22;9530;48.930;9.526;2022-10-15T03:51:39;15.10;99.90
18805;DHT22;9530;48.930;9.526;2022-10-15T03:54:06;15.10;99.90
18805;DHT22;9530;48.930;9.526;2022-10-15T03:56:33;15.20;99.90
18805;DHT22;9530;48.930;9.526;2022-10-15T03:58:59;15.20;99.90
18805;DHT22;9530;48.930;9.526;2022-10-15T04:01:28;15.20;99.90
18805;DHT22;9530;48.930;9.526;2022-10-15T04:03:54;15.20;99.90
18805;DHT22;9530;48.930;9.526;2022-10-15T04:06:21;15.20;99.90
18805;DHT22;9530;48.930;9.526;2022-10-15T04:08:48;15.20;99.90
18805;DHT22;9530;48.930;9.526;2022-10-15T04:11:14;15.20;99.90
18805;DHT22;9530;48.930;9.526;2022-10-15T04:13:41;15.20;99.90
18805;DHT22;9530;48.930;9.526;2022-10-15T04:16:08;15.20;99.90
18805;DHT22;9530;48.930;9.526;2022-10-15T04:18:36;15.20;99.90
18805;DHT22;9530;48.930;9.526;2022-10-15T04:21:03;15.20;99.90
18805;DHT22;9530;48.930;9.526;2022-10-15T04:23:29;15.20;99.90
18805;DHT22;9530;48.930;9.526;2022-10-15T04:25:58;15.20;99.90
18805;DHT22;9530;48.930;9.526;2022-10-15T04:28:25;15.20;99.90
18805;DHT22;9530;48.930;9.526;2022-10-15T04:30:55;15.20;99.90
18805;DHT22;9530;48.930;9.526;2022-10-15T04:33:22;15.30;99.90
18805;DHT22;9530;48.930;9.526;2022-10-15T04:35:58;15.30;99.90
18805;DHT22;9530;48.930;9.526;2022-10-15T04:38:25;15.30;99.90
18805;DHT22;9530;48.930;9.526;2022-10-15T04:40:57;15.40;99.90
18805;DHT22;9530;48.930;9.526;2022-10-15T04:43:24;15.40;99.90
18805;DHT22;9530;48.930;9.526;2022-10-15T04:45:55;15.40;99.90
18805;DHT22;9530;48.930;9.526;2022-10-15T04:48:21;15.30;99.90
18805;DHT22;9530;48.930;9.526;2022-10-15T04:50:48;15.30;99.90
18805;DHT22;9530;48.930;9.526;2022-10-15T04:53:16;15.30;99.90
18805;DHT22;9530;48.930;9.526;2022-10-15T04:55:43;15.30;99.90
18805;DHT22;9530;48.930;9.526;2022-10-15T04:58:09;15.30;99.90
18805;DHT22;9530;48.930;9.526;2022-10-15T05:00:36;15.40;99.90
18805;DHT22;9530;48.930;9.526;2022-10-15T05:03:04;15.40;99.90
18805;DHT22;9530;48.930;9.526;2022-10-15T05:05:30;15.30;99.90
18805;DHT22;9530;48.930;9.526;2022-10-15T05:07:58;15.30;99.90
18805;DHT22;9530;48.930;9.526;2022-10-15T05:10:27;15.30;99.90
18805;DHT22;9530;48.930;9.526;2022-10-15T05:12:54;15.30;99.90
18805;DHT22;9530;48.930;9.526;2022-10-15T05:15:20;15.30;99.90
18805;DHT22;9530;48.930;9.526;2022-10-15T05:17:47;15.30;99.90
18805;DHT22;9530;48.930;9.526;2022-10-15T05:20:14;15.30;99.90
18805;DHT22;9530;48.930;9.526;2022-10-15T05:22:41;15.30;99.90
18805;DHT22;9530;48.930;9.526;2022-10-15T05:25:08;15.30;99.90
18805;DHT22;9530;48.930;9.526;2022-10-15T05:27:36;15.30;99.90
18805;DHT22;9530;48.930;9.526;2022-10-15T05:30:03;15.20;99.90
18805;DHT22;9530;48.930;9.526;2022-10-15T05:32:30;15.20;99.90
18805;DHT22;9530;48.930;9.526;2022-10-15T05:34:57;15.20;99.90
18805;DHT22;9530;48.930;9.526;2022-10-15T05:37:24;15.20;99.90
18805;DHT22;9530;48.930;9.526;2022-10-15T05:39:50;15.20;99.90
18805;DHT22;9530;48.930;9.526;2022-10-15T05:42:17;15.20;99.90
18805;DHT22;9530;48.930;9.526;2022-10-15T05:44:45;15.20;99.90
18805;DHT22;9530;48.930;9.526;2022-10-15T05:47:12;15.20;99.90
18805;DHT22;9530;48.930;9.526;2022-10-15T05:49:39;15.20;99.90
18805;DHT22;9530;48.930;9.526;2022-10-15T05:52:06;15.20;99.90
18805;DHT22;9530;48.930;9.526;2022-10-15T05:54:32;15.10;99.90
18805;DHT22;9530;48.930;9.526;2022-10-15T05:56:59;15.20;99.90
18805;DHT22;9530;48.930;9.526;2022-10-15T05:59:26;15.20;99.90
18805;DHT22;9530;48.930;9.526;2022-10-15T06:01:54;15.20;99.90
18805;DHT22;9530;48.930;9.526;2022-10-15T06:04:20;15.30;99.90
18805;DHT22;9530;48.930;9.526;2022-10-15T06:06:47;15.30;99.90
18805;DHT22;9530;48.930;9.526;2022-10-15T06:09:14;15.30;99.90
18805;DHT22;9530;48.930;9.526;2022-10-15T06:11:40;15.40;99.90
18805;DHT22;9530;48.930;9.526;2022-10-15T06:14:07;15.40;99.90
18805;DHT22;9530;48.930;9.526;2022-10-15T06:16:34;15.40;99.90
18805;DHT22;9530;48.930;9.526;2022-10-15T06:19:02;15.30;99.90
18805;DHT22;9530;48.930;9.526;2022-10-15T06:21:29;15.30;99.90
18805;DHT22;9530;48.930;9.526;2022-10-15T06:23:55;15.30;99.90
18805;DHT22;9530;48.930;9.526;2022-10-15T06:26:22;15.30;99.90
18805;DHT22;9530;48.930;9.526;2022-10-15T06:28:49;15.40;99.90
18805;DHT22;9530;48.930;9.526;2022-10-15T06:31:15;15.40;99.90
18805;DHT22;9530;48.930;9.526;2022-10-15T06:33:42;15.40;99.90
18805;DHT22;9530;48.930;9.526;2022-10-15T06:36:10;15.30;99.90
18805;DHT22;9530;48.930;9.526;2022-10-15T06:38:38;15.40;99.90
18805;DHT22;9530;48.930;9.526;2022-10-15T06:41:05;15.40;99.90
18805;DHT22;9530;48.930;9.526;2022-10-15T06:43:33;15.50;99.90
18805;DHT22;9530;48.930;9.526;2022-10-15T06:45:59;15.50;99.90
18805;DHT22;9530;48.930;9.526;2022-10-15T06:48:26;15.50;99.90
18805;DHT22;9530;48.930;9.526;2022-10-15T06:50:53;15.40;99.90
18805;DHT22;9530;48.930;9.526;2022-10-15T06:53:21;15.50;99.90
18805;DHT22;9530;48.930;9.526;2022-10-15T06:55:48;15.40;99.90
18805;DHT22;9530;48.930;9.526;2022-10-15T06:58:14;15.50;99.90
18805;DHT22;9530;48.930;9.526;2022-10-15T07:00:41;15.50;99.90
18805;DHT22;9530;48.930;9.526;2022-10-15T07:03:08;15.60;99.90
18805;DHT22;9530;48.930;9.526;2022-10-15T07:05:34;15.60;99.90
18805;DHT22;9530;48.930;9.526;2022-10-15T07:08:01;15.70;99.90
18805;DHT22;9530;48.930;9.526;2022-10-15T07:10:29;15.70;99.90
18805;DHT22;9530;48.930;9.526;2022-10-15T07:12:58;15.70;99.90
18805;DHT22;9530;48.930;9.526;2022-10-15T07:15:25;15.80;99.90
18805;DHT22;9530;48.930;9.526;2022-10-15T07:17:52;15.80;99.90
18805;DHT22;9530;48.930;9.526;2022-10-15T07:20:21;15.90;99.90
18805;DHT22;9530;48.930;9.526;2022-10-15T07:22:48;16.00;99.90
18805;DHT22;9530;48.930;9.526;2022-10-15T07:25:15;15.90;99.90
18805;DHT22;9530;48.930;9.526;2022-10-15T07:27:43;15.90;99.90
18805;DHT22;9530;48.930;9.526;2022-10-15T07:30:10;15.90;99.90
18805;DHT22;9530;48.930;9.526;2022-10-15T07:32:36;15.80;99.90
18805;DHT22;9530;48.930;9.526;2022-10-15T07:35:04;15.90;99.90
18805;DHT22;9530;48.930;9.526;2022-10-15T07:37:30;15.90;99.90
18805;DHT22;9530;48.930;9.526;2022-10-15T07:39:57;15.90;99.90
18805;DHT22;9530;48.930;9.526;2022-10-15T07:42:24;16.00;99.90
18805;DHT22;9530;48.930;9.526;2022-10-15T07:44:52;15.90;99.90
18805;DHT22;9530;48.930;9.526;2022-10-15T07:47:19;16.00;99.90
18805;DHT22;9530;48.930;9.526;2022-10-15T07:49:45;16.10;99.90
18805;DHT22;9530;48.930;9.526;2022-10-15T07:52:12;16.20;99.90
18805;DHT22;9530;48.930;9.526;2022-10-15T07:54:39;16.30;99.90
18805;DHT22;9530;48.930;9.526;2022-10-15T07:57:06;16.40;99.90
18805;DHT22;9530;48.930;9.526;2022-10-15T07:59:33;16.50;99.90
18805;DHT22;9530;48.930;9.526;2022-10-15T08:02:02;16.70;99.90
18805;DHT22;9530;48.930;9.526;2022-10-15T08:04:29;16.80;99.90
18805;DHT22;9530;48.930;9.526;2022-10-15T08:06:55;16.90;99.90
18805;DHT22;9530;48.930;9.526;2022-10-15T08:09:22;17.00;99.90
18805;DHT22;9530;48.930;9.526;2022-10-15T08:11:49;16.90;99.90
18805;DHT22;9530;48.930;9.526;2022-10-15T08:14:15;16.80;99.90
18805;DHT22;9530;48.930;9.526;2022-10-15T08:16:42;16.70;99.90
18805;DHT22;9530;48.930;9.526;2022-10-15T08:19:10;16.60;99.90
18805;DHT22;9530;48.930;9.526;2022-10-15T08:21:41;16.60;99.90
18805;DHT22;9530;48.930;9.526;2022-10-15T08:24:08;16.60;99.90
18805;DHT22;9530;48.930;9.526;2022-10-15T08:26:35;16.70;99.90
18805;DHT22;9530;48.930;9.526;2022-10-15T08:29:02;16.80;99.90
18805;DHT22;9530;48.930;9.526;2022-10-15T08:31:29;16.80;99.90
18805;DHT22;9530;48.930;9.526;2022-10-15T08:33:58;16.80;99.90
18805;DHT22;9530;48.930;9.526;2022-10-15T08:36:26;16.90;99.90
18805;DHT22;9530;48.930;9.526;2022-10-15T08:38:53;16.90;99.90
18805;DHT22;9530;48.930;9.526;2022-10-15T08:41:25;16.90;99.90
18805;DHT22;9530;48.930;9.526;2022-10-15T08:43:54;16.80;99.90
18805;DHT22;9530;48.930;9.526;2022-10-15T08:46:24;16.80;99.90
18805;DHT22;9530;48.930;9.526;2022-10-15T08:48:53;16.80;99.90
18805;DHT22;9530;48.930;9.526;2022-10-15T08:51:22;16.80;99.90
18805;DHT22;9530;48.930;9.526;2022-10-15T08:53:55;16.80;99.90
18805;DHT22;9530;48.930;9.526;2022-10-15T08:56:26;16.70;99.90
18805;DHT22;9530;48.930;9.526;2022-10-15T08:59:00;16.50;99.90
18805;DHT22;9530;48.930;9.526;2022-10-15T09:01:34;16.50;99.90
18805;DHT22;9530;48.930;9.526;2022-10-15T09:04:15;16.50;99.90
18805;DHT22;9530;48.930;9.526;2022-10-15T09:06:46;16.40;99.90
18805;DHT22;9530;48.930;9.526;2022-10-15T09:09:20;16.40;99.90
18805;DHT22;9530;48.930;9.526;2022-10-15T09:11:56;16.30;99.90
18805;DHT22;9530;48.930;9.526;2022-10-15T09:14:27;16.20;99.90
18805;DHT22;9530;48.930;9.526;2022-10-15T09:16:56;16.20;99.90
18805;DHT22;9530;48.930;9.526;2022-10-15T09:19:26;16.20;99.90
18805;DHT22;9530;48.930;9.526;2022-10-15T09:21:54;16.10;99.90
18805;DHT22;9530;48.930;9.526;2022-10-15T09:24:27;16.10;99.90
18805;DHT22;9530;48.930;9.526;2022-10-15T09:27:02;16.10;99.90
18805;DHT22;9530;48.930;9.526;2022-10-15T09:29:36;16.00;99.90
18805;DHT22;9530;48.930;9.526;2022-10-15T09:32:11;16.20;99.90
18805;DHT22;9530;48.930;9.526;2022-10-15T09:34:43;16.20;99.90
18805;DHT22;9530;48.930;9.526;2022-10-15T09:37:16;16.30;99.90
18805;DHT22;9530;48.930;9.526;2022-10-15T09:40:13;16.30;99.90
18805;DHT22;9530;48.930;9.526;2022-10-15T09:42:41;16.30;99.90
18805;DHT22;9530;48.930;9.526;2022-10-15T09:45:11;16.20;99.90
18805;DHT22;9530;48.930;9.526;2022-10-15T09:47:39;16.20;99.90
18805;DHT22;9530;48.930;9.526;2022-10-15T09:50:08;16.30;99.90
18805;DHT22;9530;48.930;9.526;2022-10-15T09:52:51;16.20;99.90
18805;DHT22;9530;48.930;9.526;2022-10-15T09:55:32;16.10;99.90
18805;DHT22;9530;48.930;9.526;2022-10-15T09:58:02;16.20;99.90
18805;DHT22;9530;48.930;9.526;2022-10-15T10:00:51;16.30;99.90
18805;DHT22;9530;48.930;9.526;2022-10-15T10:03:18;16.40;99.90
18805;DHT22;9530;48.930;9.526;2022-10-15T10:05:44;16.60;99.90
18805;DHT22;9530;48.930;9.526;2022-10-15T10:08:17;16.70;99.90
18805;DHT22;9530;48.930;9.526;2022-10-15T10:10:53;16.90;99.90
18805;DHT22;9530;48.930;9.526;2022-10-15T10:13:22;16.90;99.90
18805;DHT22;9530;48.930;9.526;2022-10-15T10:15:51;16.90;99.90
18805;DHT22;9530;48.930;9.526;2022-10-15T10:18:20;17.00;99.90
18805;DHT22;9530;48.930;9.526;2022-10-15T10:20:55;17.10;99.90
18805;DHT22;9530;48.930;9.526;2022-10-15T10:23:28;17.10;99.90
18805;DHT22;9530;48.930;9.526;2022-10-15T10:25:57;17.10;99.90
18805;DHT22;9530;48.930;9.526;2022-10-15T10:28:28;17.20;99.90
18805;DHT22;9530;48.930;9.526;2022-10-15T10:31:03;17.30;99.90
18805;DHT22;9530;48.930;9.526;2022-10-15T10:33:34;17.30;99.90
18805;DHT22;9530;48.930;9.526;2022-10-15T10:36:01;17.20;99.90
18805;DHT22;9530;48.930;9.526;2022-10-15T10:38:31;17.30;99.90
18805;DHT22;9530;48.930;9.526;2022-10-15T10:41:01;17.30;99.90
18805;DHT22;9530;48.930;9.526;2022-10-15T10:43:32;17.40;99.90
18805;DHT22;9530;48.930;9.526;2022-10-15T10:46:01;17.50;99.90
18805;DHT22;9530;48.930;9.526;2022-10-15T10:48:41;17.80;99.90
18805;DHT22;9530;48.930;9.526;2022-10-15T10:51:12;18.00;99.90
18805;DHT22;9530;48.930;9.526;2022-10-15T10:53:47;18.10;99.90
18805;DHT22;9530;48.930;9.526;2022-10-15T10:56:16;18.30;99.90
18805;DHT22;9530;48.930;9.526;2022-10-15T10:58:45;18.10;99.90
18805;DHT22;9530;48.930;9.526;2022-10-15T11:01:14;18.30;99.90
18805;DHT22;9530;48.930;9.526;2022-10-15T11:03:43;18.10;99.90
18805;DHT22;9530;48.930;9.526;2022-10-15T11:06:22;18.20;99.90
18805;DHT22;9530;48.930;9.526;2022-10-15T11:08:59;18.10;99.90
18805;DHT22;9530;48.930;9.526;2022-10-15T11:11:32;17.90;99.90
18805;DHT22;9530;48.930;9.526;2022-10-15T11:14:06;17.50;99.90
18805;DHT22;9530;48.930;9.526;2022-10-15T11:16:46;17.50;99.90
18805;DHT22;9530;48.930;9.526;2022-10-15T11:19:22;17.50;99.90
18805;DHT22;9530;48.930;9.526;2022-10-15T11:22:04;17.50;99.90
18805;DHT22;9530;48.930;9.526;2022-10-15T11:24:41;17.50;99.90
18805;DHT22;9530;48.930;9.526;2022-10-15T11:27:25;17.70;99.90
18805;DHT22;9530;48.930;9.526;2022-10-15T11:30:02;17.70;99.90
18805;DHT22;9530;48.930;9.526;2022-10-15T11:32:40;17.80;99.90
18805;DHT22;9530;48.930;9.526;2022-10-15T11:35:19;18.10;99.90
18805;DHT22;9530;48.930;9.526;2022-10-15T11:37:57;18.00;99.90
18805;DHT22;9530;48.930;9.526;2022-10-15T11:40:31;18.00;99.90
18805;DHT22;9530;48.930;9.526;2022-10-15T11:43:12;17.80;99.90
18805;DHT22;9530;48.930;9.526;2022-10-15T11:45:52;17.90;99.90
18805;DHT22;9530;48.930;9.526;2022-10-15T11:48:28;18.00;99.90
18805;DHT22;9530;48.930;9.526;2022-10-15T11:51:03;17.90;99.90
18805;DHT22;9530;48.930;9.526;2022-10-15T11:56:36;18.00;99.90
18805;DHT22;9530;48.930;9.526;2022-10-15T11:59:15;18.20;99.90
18805;DHT22;9530;48.930;9.526;2022-10-15T12:01:47;18.40;99.90
18805;DHT22;9530;48.930;9.526;2022-10-15T12:04:19;18.70;99.90
18805;DHT22;9530;48.930;9.526;2022-10-15T12:06:49;19.00;99.90
18805;DHT22;9530;48.930;9.526;2022-10-15T12:09:23;19.20;99.90
18805;DHT22;9530;48.930;9.526;2022-10-15T12:11:56;19.50;99.90
18805;DHT22;9530;48.930;9.526;2022-10-15T12:14:32;19.70;99.90
18805;DHT22;9530;48.930;9.526;2022-10-15T12:17:06;19.50;99.90
18805;DHT22;9530;48.930;9.526;2022-10-15T12:19:38;19.60;99.90
18805;DHT22;9530;48.930;9.526;2022-10-15T12:22:08;19.50;99.90
18805;DHT22;9530;48.930;9.526;2022-10-15T12:24:50;19.40;99.90
18805;DHT22;9530;48.930;9.526;2022-10-15T12:27:29;19.20;99.90
18805;DHT22;9530;48.930;9.526;2022-10-15T12:30:27;19.00;99.90
18805;DHT22;9530;48.930;9.526;2022-10-15T12:32:57;18.70;99.90
18805;DHT22;9530;48.930;9.526;2022-10-15T12:35:32;18.60;99.90
18805;DHT22;9530;48.930;9.526;2022-10-15T12:38:09;18.60;99.90
18805;DHT22;9530;48.930;9.526;2022-10-15T12:40:38;18.40;99.90
18805;DHT22;9530;48.930;9.526;2022-10-15T12:43:14;18.30;99.90
18805;DHT22;9530;48.930;9.526;2022-10-15T12:45:50;18.20;99.90
18805;DHT22;9530;48.930;9.526;2022-10-15T12:48:28;18.20;99.90
18805;DHT22;9530;48.930;9.526;2022-10-15T12:54:32;18.00;99.90
18805;DHT22;9530;48.930;9.526;2022-10-15T12:57:00;17.90;99.90
18805;DHT22;9530;48.930;9.526;2022-10-15T12:59:30;17.90;99.90
18805;DHT22;9530;48.930;9.526;2022-10-15T13:02:35;17.90;99.90
18805;DHT22;9530;48.930;9.526;2022-10-15T13:05:03;17.90;99.90
18805;DHT22;9530;48.930;9.526;2022-10-15T13:07:32;18.00;99.90
18805;DHT22;9530;48.930;9.526;2022-10-15T13:10:01;18.10;99.90
18805;DHT22;9530;48.930;9.526;2022-10-15T13:12:28;18.10;99.90
18805;DHT22;9530;48.930;9.526;2022-10-15T13:14:58;18.20;99.90
18805;DHT22;9530;48.930;9.526;2022-10-15T13:17:28;18.50;99.90
18805;DHT22;9530;48.930;9.526;2022-10-15T13:19:58;18.70;99.90
18805;DHT22;9530;48.930;9.526;2022-10-15T13:22:28;18.90;99.90
18805;DHT22;9530;48.930;9.526;2022-10-15T13:24:56;18.90;99.90
18805;DHT22;9530;48.930;9.526;2022-10-15T13:27:24;18.80;99.90
18805;DHT22;9530;48.930;9.526;2022-10-15T13:29:56;18.80;99.90
18805;DHT22;9530;48.930;9.526;2022-10-15T13:32:25;18.60;99.90
18805;DHT22;9530;48.930;9.526;2022-10-15T13:34:52;18.50;99.90
18805;DHT22;9530;48.930;9.526;2022-10-15T13:37:26;18.40;99.90
18805;DHT22;9530;48.930;9.526;2022-10-15T13:39:54;18.30;99.90
18805;DHT22;9530;48.930;9.526;2022-10-15T13:42:23;18.20;99.90
18805;DHT22;9530;48.930;9.526;2022-10-15T13:44:58;18.10;99.90
18805;DHT22;9530;48.930;9.526;2022-10-15T13:47:28;17.90;99.90
18805;DHT22;9530;48.930;9.526;2022-10-15T13:50:12;17.80;99.90
18805;DHT22;9530;48.930;9.526;2022-10-15T13:52:42;17.70;99.90
18805;DHT22;9530;48.930;9.526;2022-10-15T13:55:16;17.50;99.90
18805;DHT22;9530;48.930;9.526;2022-10-15T13:57:44;17.50;99.90
18805;DHT22;9530;48.930;9.526;2022-10-15T14:00:19;17.40;99.90
18805;DHT22;9530;48.930;9.526;2022-10-15T14:03:06;17.30;99.90
18805;DHT22;9530;48.930;9.526;2022-10-15T14:05:32;17.20;99.90
18805;DHT22;9530;48.930;9.526;2022-10-15T14:08:00;17.10;99.90
18805;DHT22;9530;48.930;9.526;2022-10-15T14:10:27;17.10;99.90
18805;DHT22;9530;48.930;9.526;2022-10-15T14:12:54;17.10;99.90
18805;DHT22;9530;48.930;9.526;2022-10-15T14:15:43;17.00;99.90
18805;DHT22;9530;48.930;9.526;2022-10-15T14:18:10;17.00;99.90
18805;DHT22;9530;48.930;9.526;2022-10-15T14:20:42;16.80;99.90
18805;DHT22;9530;48.930;9.526;2022-10-15T14:23:15;16.80;99.90
18805;DHT22;9530;48.930;9.526;2022-10-15T14:25:42;16.80;99.90
18805;DHT22;9530;48.930;9.526;2022-10-15T14:28:18;16.70;99.90
18805;DHT22;9530;48.930;9.526;2022-10-15T14:30:46;16.60;99.90
18805;DHT22;9530;48.930;9.526;2022-10-15T14:33:29;16.60;99.90
18805;DHT22;9530;48.930;9.526;2022-10-15T14:36:08;16.60;99.90
18805;DHT22;9530;48.930;9.526;2022-10-15T14:38:36;16.50;99.90
18805;DHT22;9530;48.930;9.526;2022-10-15T14:41:05;16.50;99.90
18805;DHT22;9530;48.930;9.526;2022-10-15T14:43:35;16.40;99.90
18805;DHT22;9530;48.930;9.526;2022-10-15T14:46:04;16.30;99.90
18805;DHT22;9530;48.930;9.526;2022-10-15T14:48:33;16.30;99.90
18805;DHT22;9530;48.930;9.526;2022-10-15T14:51:04;16.20;99.90
18805;DHT22;9530;48.930;9.526;2022-10-15T14:53:36;16.20;99.90
18805;DHT22;9530;48.930;9.526;2022-10-15T14:56:07;16.20;99.90
18805;DHT22;9530;48.930;9.526;2022-10-15T14:58:36;16.20;99.90
18805;DHT22;9530;48.930;9.526;2022-10-15T15:01:05;16.30;99.90
18805;DHT22;9530;48.930;9.526;2022-10-15T15:03:39;16.30;99.90
18805;DHT22;9530;48.930;9.526;2022-10-15T15:06:06;16.30;99.90
18805;DHT22;9530;48.930;9.526;2022-10-15T15:08:33;16.30;99.90
18805;DHT22;9530;48.930;9.526;2022-10-15T15:11:04;16.20;99.90
18805;DHT22;9530;48.930;9.526;2022-10-15T15:13:36;16.20;99.90
18805;DHT22;9530;48.930;9.526;2022-10-15T15:16:04;16.10;99.90
18805;DHT22;9530;48.930;9.526;2022-10-15T15:18:31;16.10;99.90
18805;DHT22;9530;48.930;9.526;2022-10-15T15:21:00;16.20;99.90
18805;DHT22;9530;48.930;9.526;2022-10-15T15:23:28;16.20;99.90
18805;DHT22;9530;48.930;9.526;2022-10-15T15:25:55;16.20;99.90
18805;DHT22;9530;48.930;9.526;2022-10-15T15:28:25;16.30;99.90
18805;DHT22;9530;48.930;9.526;2022-10-15T15:30:55;16.30;99.90
18805;DHT22;9530;48.930;9.526;2022-10-15T15:33:23;16.30;99.90
18805;DHT22;9530;48.930;9.526;2022-10-15T15:35:51;16.40;99.90
18805;DHT22;9530;48.930;9.526;2022-10-15T15:38:19;16.40;99.90
18805;DHT22;9530;48.930;9.526;2022-10-15T15:40:47;16.50;99.90
18805;DHT22;9530;48.930;9.526;2022-10-15T15:43:16;16.50;99.90
18805;DHT22;9530;48.930;9.526;2022-10-15T15:45:45;16.50;99.90
18805;DHT22;9530;48.930;9.526;2022-10-15T15:48:12;16.40;99.90
18805;DHT22;9530;48.930;9.526;2022-10-15T15:50:39;16.30;99.90
18805;DHT22;9530;48.930;9.526;2022-10-15T15:53:06;16.20;99.90
18805;DHT22;9530;48.930;9.526;2022-10-15T15:55:32;16.10;99.90
18805;DHT22;9530;48.930;9.526;2022-10-15T15:57:59;16.00;99.90
18805;DHT22;9530;48.930;9.526;2022-10-15T16:00:26;16.00;99.90
18805;DHT22;9530;48.930;9.526;2022-10-15T16:02:54;16.00;99.90
18805;DHT22;9530;48.930;9.526;2022-10-15T16:05:20;16.40;99.90
18805;DHT22;9530;48.930;9.526;2022-10-15T16:07:48;17.10;99.90
18805;DHT22;9530;48.930;9.526;2022-10-15T16:10:14;17.80;99.90
18805;DHT22;9530;48.930;9.526;2022-10-15T16:12:42;17.70;99.90
18805;DHT22;9530;48.930;9.526;2022-10-15T16:15:09;17.40;99.90
18805;DHT22;9530;48.930;9.526;2022-10-15T16:17:36;17.00;99.90